sensor_id;sensor_type;location;lat;lon;timestamp;P1;durP1;ratioP1;P2;durP2;ratioP2
12112;SDS011;6120;52.250;8.478;2023-08-20T00:01:13;7.32;;;2.58;;
12112;SDS011;6120;52.250;8.478;2023-08-20T00:03:42;8.55;;;3.20;;
12112;SDS011;6120;52.250;8.478;2023-08-20T00:06:10;5.78;;;2.70;;
12112;SDS011;6120;52.250;8.478;2023-08-20T00:08:37;6.38;;;2.70;;
12112;SDS011;6120;52.250;8.478;2023-08-20T00:11:03;5.88;;;2.47;;
12112;SDS011;6120;52.250;8.478;2023-08-20T00:13:32;4.75;;;2.10;;
12112;SDS011;6120;52.250;8.478;2023-08-20T00:15:58;7.47;;;3.17;;
12112;SDS011;6120;52.250;8.478;2023-08-20T00:18:25;8.43;;;3.00;;
12112;SDS011;6120;52.250;8.478;2023-08-20T00:20:53;7.90;;;2.72;;
12112;SDS011;6120;52.250;8.478;2023-08-20T00:23:20;8.82;;;2.97;;
12112;SDS011;6120;52.250;8.478;2023-08-20T00:25:46;4.03;;;2.47;;
12112;SDS011;6120;52.250;8.478;2023-08-20T00:28:13;4.20;;;2.45;;
12112;SDS011;6120;52.250;8.478;2023-08-20T00:30:40;4.90;;;2.53;;
12112;SDS011;6120;52.250;8.478;2023-08-20T00:33:07;7.28;;;2.83;;
12112;SDS011;6120;52.250;8.478;2023-08-20T00:35:33;4.40;;;2.05;;
12112;SDS011;6120;52.250;8.478;2023-08-20T00:38:00;5.93;;;2.63;;
12112;SDS011;6120;52.250;8.478;2023-08-20T00:40:27;7.03;;;2.67;;
12112;SDS011;6120;52.250;8.478;2023-08-20T00:42:53;8.63;;;2.72;;
12112;SDS011;6120;52.250;8.478;2023-08-20T00:45:20;6.22;;;2.83;;
12112;SDS011;6120;52.250;8.478;2023-08-20T00:47:48;6.95;;;2.67;;
12112;SDS011;6120;52.250;8.478;2023-08-20T00:50:15;5.50;;;2.45;;
12112;SDS011;6120;52.250;8.478;2023-08-20T00:52:42;4.68;;;2.67;;
12112;SDS011;6120;52.250;8.478;2023-08-20T00:55:09;5.03;;;2.42;;
12112;SDS011;6120;52.250;8.478;2023-08-20T00:57:37;9.07;;;2.30;;
12112;SDS011;6120;52.250;8.478;2023-08-20T01:00:04;4.65;;;2.17;;
12112;SDS011;6120;52.250;8.478;2023-08-20T01:02:36;11.30;;;3.00;;
12112;SDS011;6120;52.250;8.478;2023-08-20T01:05:04;6.50;;;2.75;;
12112;SDS011;6120;52.250;8.478;2023-08-20T01:07:48;7.13;;;2.53;;
12112;SDS011;6120;52.250;8.478;2023-08-20T01:13:19;5.32;;;2.63;;
12112;SDS011;6120;52.250;8.478;2023-08-20T01:15:46;6.18;;;2.85;;
12112;SDS011;6120;52.250;8.478;2023-08-20T01:18:12;5.78;;;2.60;;
12112;SDS011;6120;52.250;8.478;2023-08-20T01:20:39;11.20;;;2.30;;
12112;SDS011;6120;52.250;8.478;2023-08-20T01:25:56;6.63;;;3.20;;
12112;SDS011;6120;52.250;8.478;2023-08-20T01:28:46;5.30;;;2.78;;
12112;SDS011;6120;52.250;8.478;2023-08-20T01:31:13;7.38;;;3.80;;
12112;SDS011;6120;52.250;8.478;2023-08-20T01:33:40;13.23;;;5.13;;
12112;SDS011;6120;52.250;8.478;2023-08-20T01:36:07;9.23;;;4.82;;
12112;SDS011;6120;52.250;8.478;2023-08-20T01:38:37;8.10;;;4.38;;
12112;SDS011;6120;52.250;8.478;2023-08-20T01:41:04;9.57;;;4.63;;
12112;SDS011;6120;52.250;8.478;2023-08-20T01:43:30;6.57;;;4.05;;
12112;SDS011;6120;52.250;8.478;2023-08-20T01:45:57;8.05;;;3.97;;
12112;SDS011;6120;52.250;8.478;2023-08-20T01:48:23;6.20;;;3.20;;
12112;SDS011;6120;52.250;8.478;2023-08-20T01:50:50;6.18;;;3.55;;
12112;SDS011;6120;52.250;8.478;2023-08-20T01:53:17;8.25;;;3.58;;
12112;SDS011;6120;52.250;8.478;2023-08-20T01:55:43;10.07;;;4.03;;
12112;SDS011;6120;52.250;8.478;2023-08-20T01:58:10;9.45;;;4.20;;
12112;SDS011;6120;52.250;8.478;2023-08-20T02:00:37;8.25;;;4.18;;
12112;SDS011;6120;52.250;8.478;2023-08-20T02:03:03;7.25;;;3.80;;
12112;SDS011;6120;52.250;8.478;2023-08-20T02:05:30;5.35;;;3.13;;
12112;SDS011;6120;52.250;8.478;2023-08-20T02:07:57;6.30;;;3.85;;
12112;SDS011;6120;52.250;8.478;2023-08-20T02:10:23;8.60;;;3.92;;
12112;SDS011;6120;52.250;8.478;2023-08-20T02:12:50;7.03;;;3.95;;
12112;SDS011;6120;52.250;8.478;2023-08-20T02:15:17;7.05;;;3.65;;
12112;SDS011;6120;52.250;8.478;2023-08-20T02:17:44;10.40;;;3.75;;
12112;SDS011;6120;52.250;8.478;2023-08-20T02:20:11;9.70;;;3.55;;
12112;SDS011;6120;52.250;8.478;2023-08-20T02:22:37;7.78;;;3.88;;
12112;SDS011;6120;52.250;8.478;2023-08-20T02:25:04;9.35;;;3.90;;
12112;SDS011;6120;52.250;8.478;2023-08-20T02:27:31;9.40;;;4.10;;
12112;SDS011;6120;52.250;8.478;2023-08-20T02:29:58;7.22;;;3.10;;
12112;SDS011;6120;52.250;8.478;2023-08-20T02:32:25;6.65;;;2.92;;
12112;SDS011;6120;52.250;8.478;2023-08-20T02:34:52;7.03;;;3.40;;
12112;SDS011;6120;52.250;8.478;2023-08-20T02:37:19;6.43;;;3.10;;
12112;SDS011;6120;52.250;8.478;2023-08-20T02:39:46;5.68;;;2.78;;
12112;SDS011;6120;52.250;8.478;2023-08-20T02:42:13;5.88;;;3.15;;
12112;SDS011;6120;52.250;8.478;2023-08-20T02:44:39;7.25;;;3.55;;
12112;SDS011;6120;52.250;8.478;2023-08-20T02:47:06;4.82;;;3.20;;
12112;SDS011;6120;52.250;8.478;2023-08-20T02:49:33;5.03;;;2.63;;
12112;SDS011;6120;52.250;8.478;2023-08-20T02:51:59;7.05;;;2.63;;
12112;SDS011;6120;52.250;8.478;2023-08-20T02:54:26;6.22;;;2.90;;
12112;SDS011;6120;52.250;8.478;2023-08-20T02:56:53;7.28;;;2.88;;
12112;SDS011;6120;52.250;8.478;2023-08-20T02:59:19;6.03;;;2.90;;
12112;SDS011;6120;52.250;8.478;2023-08-20T03:01:46;5.82;;;2.90;;
12112;SDS011;6120;52.250;8.478;2023-08-20T03:04:13;6.70;;;2.55;;
12112;SDS011;6120;52.250;8.478;2023-08-20T03:06:40;7.00;;;2.33;;
12112;SDS011;6120;52.250;8.478;2023-08-20T03:09:06;5.07;;;2.60;;
12112;SDS011;6120;52.250;8.478;2023-08-20T03:11:33;3.45;;;2.00;;
12112;SDS011;6120;52.250;8.478;2023-08-20T03:14:00;6.85;;;2.30;;
12112;SDS011;6120;52.250;8.478;2023-08-20T03:16:26;5.00;;;2.40;;
12112;SDS011;6120;52.250;8.478;2023-08-20T03:18:53;8.32;;;2.13;;
12112;SDS011;6120;52.250;8.478;2023-08-20T03:21:19;4.38;;;2.20;;
12112;SDS011;6120;52.250;8.478;2023-08-20T03:23:46;6.78;;;2.60;;
12112;SDS011;6120;52.250;8.478;2023-08-20T03:26:13;5.53;;;2.55;;
12112;SDS011;6120;52.250;8.478;2023-08-20T03:28:39;5.03;;;2.30;;
12112;SDS011;6120;52.250;8.478;2023-08-20T03:31:06;5.47;;;2.47;;
12112;SDS011;6120;52.250;8.478;2023-08-20T03:33:33;5.22;;;2.80;;
12112;SDS011;6120;52.250;8.478;2023-08-20T03:35:59;4.28;;;2.30;;
12112;SDS011;6120;52.250;8.478;2023-08-20T03:38:26;6.10;;;2.55;;
12112;SDS011;6120;52.250;8.478;2023-08-20T03:40:53;6.30;;;2.55;;
12112;SDS011;6120;52.250;8.478;2023-08-20T03:43:21;6.55;;;2.70;;
12112;SDS011;6120;52.250;8.478;2023-08-20T03:45:51;6.70;;;2.53;;
12112;SDS011;6120;52.250;8.478;2023-08-20T03:48:18;7.15;;;2.13;;
12112;SDS011;6120;52.250;8.478;2023-08-20T03:50:46;5.80;;;2.00;;
12112;SDS011;6120;52.250;8.478;2023-08-20T03:53:13;4.00;;;1.70;;
12112;SDS011;6120;52.250;8.478;2023-08-20T03:55:40;5.20;;;1.80;;
12112;SDS011;6120;52.250;8.478;2023-08-20T03:58:06;7.22;;;2.40;;
12112;SDS011;6120;52.250;8.478;2023-08-20T04:00:34;5.50;;;1.92;;
12112;SDS011;6120;52.250;8.478;2023-08-20T04:03:01;5.13;;;2.10;;
12112;SDS011;6120;52.250;8.478;2023-08-20T04:05:28;3.95;;;1.83;;
12112;SDS011;6120;52.250;8.478;2023-08-20T04:07:55;6.15;;;2.00;;
12112;SDS011;6120;52.250;8.478;2023-08-20T04:10:21;4.68;;;1.92;;
12112;SDS011;6120;52.250;8.478;2023-08-20T04:12:48;3.15;;;1.80;;
12112;SDS011;6120;52.250;8.478;2023-08-20T04:15:15;5.72;;;1.95;;
12112;SDS011;6120;52.250;8.478;2023-08-20T04:17:41;6.30;;;2.25;;
12112;SDS011;6120;52.250;8.478;2023-08-20T04:20:08;2.97;;;1.75;;
12112;SDS011;6120;52.250;8.478;2023-08-20T04:22:36;3.15;;;1.65;;
12112;SDS011;6120;52.250;8.478;2023-08-20T04:25:04;5.40;;;1.98;;
12112;SDS011;6120;52.250;8.478;2023-08-20T04:27:32;4.07;;;2.30;;
12112;SDS011;6120;52.250;8.478;2023-08-20T04:29:59;5.43;;;2.43;;
12112;SDS011;6120;52.250;8.478;2023-08-20T04:32:26;5.57;;;2.15;;
12112;SDS011;6120;52.250;8.478;2023-08-20T04:34:53;5.10;;;1.88;;
12112;SDS011;6120;52.250;8.478;2023-08-20T04:37:20;5.65;;;1.98;;
12112;SDS011;6120;52.250;8.478;2023-08-20T04:39:47;4.65;;;2.25;;
12112;SDS011;6120;52.250;8.478;2023-08-20T04:42:13;7.43;;;2.35;;
12112;SDS011;6120;52.250;8.478;2023-08-20T04:44:40;4.82;;;2.63;;
12112;SDS011;6120;52.250;8.478;2023-08-20T04:47:10;8.27;;;2.33;;
12112;SDS011;6120;52.250;8.478;2023-08-20T04:49:38;6.10;;;2.10;;
12112;SDS011;6120;52.250;8.478;2023-08-20T04:52:04;5.78;;;2.22;;
12112;SDS011;6120;52.250;8.478;2023-08-20T04:54:31;3.08;;;1.42;;
12112;SDS011;6120;52.250;8.478;2023-08-20T04:56:58;4.95;;;1.92;;
12112;SDS011;6120;52.250;8.478;2023-08-20T04:59:24;6.93;;;2.25;;
12112;SDS011;6120;52.250;8.478;2023-08-20T05:01:52;3.78;;;1.73;;
12112;SDS011;6120;52.250;8.478;2023-08-20T05:04:19;4.70;;;1.77;;
12112;SDS011;6120;52.250;8.478;2023-08-20T05:06:45;5.65;;;2.20;;
12112;SDS011;6120;52.250;8.478;2023-08-20T05:09:12;5.50;;;1.98;;
12112;SDS011;6120;52.250;8.478;2023-08-20T05:11:38;5.00;;;2.05;;
12112;SDS011;6120;52.250;8.478;2023-08-20T05:14:05;4.97;;;1.77;;
12112;SDS011;6120;52.250;8.478;2023-08-20T05:16:32;3.60;;;1.70;;
12112;SDS011;6120;52.250;8.478;2023-08-20T05:18:58;3.03;;;1.60;;
12112;SDS011;6120;52.250;8.478;2023-08-20T05:21:25;3.67;;;1.58;;
12112;SDS011;6120;52.250;8.478;2023-08-20T05:23:52;3.83;;;2.05;;
12112;SDS011;6120;52.250;8.478;2023-08-20T05:26:18;3.58;;;1.73;;
12112;SDS011;6120;52.250;8.478;2023-08-20T05:28:45;3.90;;;1.70;;
12112;SDS011;6120;52.250;8.478;2023-08-20T05:31:12;5.70;;;2.20;;
12112;SDS011;6120;52.250;8.478;2023-08-20T05:33:38;5.47;;;2.17;;
12112;SDS011;6120;52.250;8.478;2023-08-20T05:36:05;7.65;;;2.22;;
12112;SDS011;6120;52.250;8.478;2023-08-20T05:38:32;4.85;;;2.17;;
12112;SDS011;6120;52.250;8.478;2023-08-20T05:40:58;6.45;;;2.53;;
12112;SDS011;6120;52.250;8.478;2023-08-20T05:43:25;8.10;;;3.42;;
12112;SDS011;6120;52.250;8.478;2023-08-20T05:45:52;5.55;;;2.63;;
12112;SDS011;6120;52.250;8.478;2023-08-20T05:48:18;7.40;;;2.88;;
12112;SDS011;6120;52.250;8.478;2023-08-20T05:50:45;6.15;;;3.10;;
12112;SDS011;6120;52.250;8.478;2023-08-20T05:53:11;7.65;;;2.72;;
12112;SDS011;6120;52.250;8.478;2023-08-20T05:55:38;6.85;;;2.97;;
12112;SDS011;6120;52.250;8.478;2023-08-20T05:58:05;5.03;;;2.72;;
12112;SDS011;6120;52.250;8.478;2023-08-20T06:00:32;7.15;;;2.83;;
12112;SDS011;6120;52.250;8.478;2023-08-20T06:02:59;8.77;;;3.65;;
12112;SDS011;6120;52.250;8.478;2023-08-20T06:05:26;8.55;;;3.53;;
12112;SDS011;6120;52.250;8.478;2023-08-20T06:07:52;7.32;;;3.65;;
12112;SDS011;6120;52.250;8.478;2023-08-20T06:10:19;4.95;;;2.90;;
12112;SDS011;6120;52.250;8.478;2023-08-20T06:12:45;7.07;;;3.25;;
12112;SDS011;6120;52.250;8.478;2023-08-20T06:15:13;5.68;;;2.83;;
12112;SDS011;6120;52.250;8.478;2023-08-20T06:17:40;8.88;;;3.10;;
12112;SDS011;6120;52.250;8.478;2023-08-20T06:20:07;5.90;;;3.20;;
12112;SDS011;6120;52.250;8.478;2023-08-20T06:22:38;7.28;;;3.40;;
12112;SDS011;6120;52.250;8.478;2023-08-20T06:25:04;6.25;;;3.10;;
12112;SDS011;6120;52.250;8.478;2023-08-20T06:27:31;6.80;;;3.30;;
12112;SDS011;6120;52.250;8.478;2023-08-20T06:32:26;7.57;;;3.08;;
12112;SDS011;6120;52.250;8.478;2023-08-20T06:34:55;6.70;;;3.03;;
12112;SDS011;6120;52.250;8.478;2023-08-20T06:37:22;5.60;;;3.35;;
12112;SDS011;6120;52.250;8.478;2023-08-20T06:39:48;8.48;;;3.42;;
12112;SDS011;6120;52.250;8.478;2023-08-20T06:42:15;5.70;;;3.15;;
12112;SDS011;6120;52.250;8.478;2023-08-20T06:44:42;6.82;;;3.22;;
12112;SDS011;6120;52.250;8.478;2023-08-20T06:47:08;6.72;;;3.22;;
12112;SDS011;6120;52.250;8.478;2023-08-20T06:49:35;6.00;;;3.10;;
12112;SDS011;6120;52.250;8.478;2023-08-20T06:52:02;6.78;;;3.28;;
12112;SDS011;6120;52.250;8.478;2023-08-20T06:54:28;6.32;;;3.10;;
12112;SDS011;6120;52.250;8.478;2023-08-20T06:56:55;7.45;;;3.13;;
12112;SDS011;6120;52.250;8.478;2023-08-20T06:59:22;6.45;;;3.28;;
12112;SDS011;6120;52.250;8.478;2023-08-20T07:01:49;5.57;;;2.70;;
12112;SDS011;6120;52.250;8.478;2023-08-20T07:04:16;5.30;;;2.53;;
12112;SDS011;6120;52.250;8.478;2023-08-20T07:06:42;10.63;;;3.42;;
12112;SDS011;6120;52.250;8.478;2023-08-20T07:09:09;6.93;;;3.10;;
12112;SDS011;6120;52.250;8.478;2023-08-20T07:11:37;4.78;;;2.58;;
12112;SDS011;6120;52.250;8.478;2023-08-20T07:14:03;6.28;;;3.15;;
12112;SDS011;6120;52.250;8.478;2023-08-20T07:18:58;6.72;;;2.60;;
12112;SDS011;6120;52.250;8.478;2023-08-20T07:21:25;5.07;;;2.80;;
12112;SDS011;6120;52.250;8.478;2023-08-20T07:23:52;5.68;;;2.80;;
12112;SDS011;6120;52.250;8.478;2023-08-20T07:26:18;6.82;;;3.20;;
12112;SDS011;6120;52.250;8.478;2023-08-20T07:28:45;7.47;;;2.67;;
12112;SDS011;6120;52.250;8.478;2023-08-20T07:31:24;5.45;;;2.90;;
12112;SDS011;6120;52.250;8.478;2023-08-20T07:33:56;4.32;;;2.60;;
12112;SDS011;6120;52.250;8.478;2023-08-20T07:36:29;6.75;;;2.70;;
12112;SDS011;6120;52.250;8.478;2023-08-20T07:38:55;5.30;;;2.50;;
12112;SDS011;6120;52.250;8.478;2023-08-20T07:41:22;9.82;;;3.38;;
12112;SDS011;6120;52.250;8.478;2023-08-20T07:43:49;3.95;;;2.30;;
12112;SDS011;6120;52.250;8.478;2023-08-20T07:46:15;4.72;;;2.30;;
12112;SDS011;6120;52.250;8.478;2023-08-20T07:48:42;4.18;;;2.47;;
12112;SDS011;6120;52.250;8.478;2023-08-20T07:51:09;4.45;;;3.10;;
12112;SDS011;6120;52.250;8.478;2023-08-20T07:53:36;5.00;;;2.67;;
12112;SDS011;6120;52.250;8.478;2023-08-20T07:56:03;6.85;;;3.28;;
12112;SDS011;6120;52.250;8.478;2023-08-20T07:58:30;4.97;;;2.90;;
12112;SDS011;6120;52.250;8.478;2023-08-20T08:00:57;5.72;;;3.00;;
12112;SDS011;6120;52.250;8.478;2023-08-20T08:03:25;5.75;;;2.65;;
12112;SDS011;6120;52.250;8.478;2023-08-20T08:05:53;6.05;;;3.20;;
12112;SDS011;6120;52.250;8.478;2023-08-20T08:08:20;3.70;;;2.75;;
12112;SDS011;6120;52.250;8.478;2023-08-20T08:10:48;6.15;;;3.13;;
12112;SDS011;6120;52.250;8.478;2023-08-20T08:13:15;10.00;;;3.85;;
12112;SDS011;6120;52.250;8.478;2023-08-20T08:15:44;7.13;;;3.58;;
12112;SDS011;6120;52.250;8.478;2023-08-20T08:18:11;5.22;;;3.13;;
12112;SDS011;6120;52.250;8.478;2023-08-20T08:20:38;8.75;;;3.58;;
12112;SDS011;6120;52.250;8.478;2023-08-20T08:23:05;11.50;;;4.10;;
12112;SDS011;6120;52.250;8.478;2023-08-20T08:25:31;6.25;;;3.53;;
12112;SDS011;6120;52.250;8.478;2023-08-20T08:27:58;7.22;;;3.10;;
12112;SDS011;6120;52.250;8.478;2023-08-20T08:30:26;7.50;;;3.33;;
12112;SDS011;6120;52.250;8.478;2023-08-20T08:32:53;7.78;;;3.38;;
12112;SDS011;6120;52.250;8.478;2023-08-20T08:35:20;4.88;;;3.13;;
12112;SDS011;6120;52.250;8.478;2023-08-20T08:37:47;7.55;;;4.05;;
12112;SDS011;6120;52.250;8.478;2023-08-20T08:40:14;11.27;;;4.05;;
12112;SDS011;6120;52.250;8.478;2023-08-20T08:42:40;7.00;;;3.92;;
12112;SDS011;6120;52.250;8.478;2023-08-20T08:47:36;8.35;;;4.80;;
12112;SDS011;6120;52.250;8.478;2023-08-20T08:50:03;6.97;;;4.75;;
12112;SDS011;6120;52.250;8.478;2023-08-20T08:52:30;8.90;;;4.65;;
12112;SDS011;6120;52.250;8.478;2023-08-20T08:54:57;7.65;;;4.65;;
12112;SDS011;6120;52.250;8.478;2023-08-20T08:57:24;6.53;;;4.05;;
12112;SDS011;6120;52.250;8.478;2023-08-20T08:59:51;5.93;;;4.25;;
12112;SDS011;6120;52.250;8.478;2023-08-20T09:02:17;6.75;;;4.38;;
12112;SDS011;6120;52.250;8.478;2023-08-20T09:04:45;7.90;;;4.55;;
12112;SDS011;6120;52.250;8.478;2023-08-20T09:07:12;8.43;;;4.10;;
12112;SDS011;6120;52.250;8.478;2023-08-20T09:09:43;6.32;;;4.25;;
12112;SDS011;6120;52.250;8.478;2023-08-20T09:14:48;8.15;;;4.22;;
12112;SDS011;6120;52.250;8.478;2023-08-20T09:17:16;8.90;;;4.32;;
12112;SDS011;6120;52.250;8.478;2023-08-20T09:19:43;5.97;;;3.70;;
12112;SDS011;6120;52.250;8.478;2023-08-20T09:22:11;7.43;;;4.43;;
12112;SDS011;6120;52.250;8.478;2023-08-20T09:24:43;10.15;;;4.78;;
12112;SDS011;6120;52.250;8.478;2023-08-20T09:27:12;7.18;;;4.32;;
12112;SDS011;6120;52.250;8.478;2023-08-20T09:29:45;5.18;;;4.03;;
12112;SDS011;6120;52.250;8.478;2023-08-20T09:32:16;5.53;;;3.40;;
12112;SDS011;6120;52.250;8.478;2023-08-20T09:34:44;9.25;;;4.40;;
12112;SDS011;6120;52.250;8.478;2023-08-20T09:37:15;7.93;;;4.00;;
12112;SDS011;6120;52.250;8.478;2023-08-20T09:39:43;5.13;;;3.85;;
12112;SDS011;6120;52.250;8.478;2023-08-20T09:42:10;6.38;;;3.53;;
12112;SDS011;6120;52.250;8.478;2023-08-20T09:44:39;6.43;;;3.83;;
12112;SDS011;6120;52.250;8.478;2023-08-20T09:47:10;5.88;;;3.40;;
12112;SDS011;6120;52.250;8.478;2023-08-20T09:49:42;5.15;;;3.53;;
12112;SDS011;6120;52.250;8.478;2023-08-20T09:52:11;5.75;;;3.45;;
12112;SDS011;6120;52.250;8.478;2023-08-20T09:54:47;5.57;;;3.20;;
12112;SDS011;6120;52.250;8.478;2023-08-20T09:59:54;6.88;;;3.70;;
12112;SDS011;6120;52.250;8.478;2023-08-20T10:02:21;7.43;;;4.55;;
12112;SDS011;6120;52.250;8.478;2023-08-20T10:04:48;7.95;;;3.97;;
12112;SDS011;6120;52.250;8.478;2023-08-20T10:07:15;6.30;;;3.57;;
12112;SDS011;6120;52.250;8.478;2023-08-20T10:09:42;4.53;;;3.30;;
12112;SDS011;6120;52.250;8.478;2023-08-20T10:12:15;5.78;;;3.63;;
12112;SDS011;6120;52.250;8.478;2023-08-20T10:14:42;6.40;;;3.60;;
12112;SDS011;6120;52.250;8.478;2023-08-20T10:17:08;5.97;;;3.65;;
12112;SDS011;6120;52.250;8.478;2023-08-20T10:19:36;4.57;;;2.90;;
12112;SDS011;6120;52.250;8.478;2023-08-20T10:22:04;4.82;;;3.10;;
12112;SDS011;6120;52.250;8.478;2023-08-20T10:24:47;6.65;;;3.30;;
12112;SDS011;6120;52.250;8.478;2023-08-20T10:27:28;10.98;;;3.42;;
12112;SDS011;6120;52.250;8.478;2023-08-20T10:30:00;7.85;;;3.22;;
12112;SDS011;6120;52.250;8.478;2023-08-20T10:32:50;4.22;;;2.60;;
12112;SDS011;6120;52.250;8.478;2023-08-20T10:35:46;6.47;;;2.90;;
12112;SDS011;6120;52.250;8.478;2023-08-20T10:38:14;6.40;;;3.53;;
12112;SDS011;6120;52.250;8.478;2023-08-20T10:48:48;5.00;;;3.08;;
12112;SDS011;6120;52.250;8.478;2023-08-20T10:51:21;4.50;;;2.80;;
12112;SDS011;6120;52.250;8.478;2023-08-20T10:56:40;4.82;;;2.70;;
12112;SDS011;6120;52.250;8.478;2023-08-20T10:59:27;6.97;;;3.30;;
12112;SDS011;6120;52.250;8.478;2023-08-20T11:01:58;6.43;;;4.30;;
12112;SDS011;6120;52.250;8.478;2023-08-20T11:04:29;6.97;;;3.30;;
12112;SDS011;6120;52.250;8.478;2023-08-20T11:06:59;5.82;;;3.50;;
12112;SDS011;6120;52.250;8.478;2023-08-20T11:09:27;5.27;;;2.87;;
12112;SDS011;6120;52.250;8.478;2023-08-20T11:11:55;8.80;;;3.00;;
12112;SDS011;6120;52.250;8.478;2023-08-20T11:14:22;4.75;;;2.85;;
12112;SDS011;6120;52.250;8.478;2023-08-20T11:16:49;4.82;;;2.78;;
12112;SDS011;6120;52.250;8.478;2023-08-20T11:19:22;5.60;;;2.65;;
12112;SDS011;6120;52.250;8.478;2023-08-20T11:21:50;6.05;;;2.78;;
12112;SDS011;6120;52.250;8.478;2023-08-20T11:24:18;5.57;;;2.72;;
12112;SDS011;6120;52.250;8.478;2023-08-20T11:26:46;5.43;;;3.00;;
12112;SDS011;6120;52.250;8.478;2023-08-20T11:29:15;5.35;;;2.60;;
12112;SDS011;6120;52.250;8.478;2023-08-20T11:31:48;4.25;;;2.70;;
12112;SDS011;6120;52.250;8.478;2023-08-20T11:34:15;4.40;;;2.55;;
12112;SDS011;6120;52.250;8.478;2023-08-20T11:36:42;5.65;;;2.50;;
12112;SDS011;6120;52.250;8.478;2023-08-20T11:39:08;8.38;;;3.25;;
12112;SDS011;6120;52.250;8.478;2023-08-20T11:41:35;4.05;;;2.70;;
12112;SDS011;6120;52.250;8.478;2023-08-20T11:44:02;6.10;;;2.80;;
12112;SDS011;6120;52.250;8.478;2023-08-20T11:46:29;5.55;;;3.10;;
12112;SDS011;6120;52.250;8.478;2023-08-20T11:49:00;4.90;;;2.90;;
12112;SDS011;6120;52.250;8.478;2023-08-20T11:54:31;5.15;;;2.83;;
12112;SDS011;6120;52.250;8.478;2023-08-20T11:59:31;5.53;;;3.33;;
12112;SDS011;6120;52.250;8.478;2023-08-20T12:01:58;6.88;;;2.47;;
12112;SDS011;6120;52.250;8.478;2023-08-20T12:04:28;6.20;;;3.33;;
12112;SDS011;6120;52.250;8.478;2023-08-20T12:07:05;4.25;;;2.80;;
12112;SDS011;6120;52.250;8.478;2023-08-20T12:09:34;4.10;;;2.88;;
12112;SDS011;6120;52.250;8.478;2023-08-20T12:12:01;5.72;;;3.20;;
12112;SDS011;6120;52.250;8.478;2023-08-20T12:14:28;4.85;;;3.10;;
12112;SDS011;6120;52.250;8.478;2023-08-20T12:16:55;5.55;;;2.70;;
12112;SDS011;6120;52.250;8.478;2023-08-20T12:19:22;4.28;;;2.70;;
12112;SDS011;6120;52.250;8.478;2023-08-20T12:21:49;4.63;;;2.73;;
12112;SDS011;6120;52.250;8.478;2023-08-20T12:24:16;9.00;;;3.60;;
12112;SDS011;6120;52.250;8.478;2023-08-20T12:26:45;4.82;;;2.83;;
12112;SDS011;6120;52.250;8.478;2023-08-20T12:29:12;3.95;;;2.90;;
12112;SDS011;6120;52.250;8.478;2023-08-20T12:31:39;3.90;;;2.70;;
12112;SDS011;6120;52.250;8.478;2023-08-20T12:34:06;5.82;;;3.15;;
12112;SDS011;6120;52.250;8.478;2023-08-20T12:36:34;6.25;;;2.90;;
12112;SDS011;6120;52.250;8.478;2023-08-20T12:39:01;4.53;;;3.05;;
12112;SDS011;6120;52.250;8.478;2023-08-20T12:41:30;4.10;;;2.60;;
12112;SDS011;6120;52.250;8.478;2023-08-20T12:43:57;6.03;;;3.00;;
12112;SDS011;6120;52.250;8.478;2023-08-20T12:46:24;7.40;;;3.28;;
12112;SDS011;6120;52.250;8.478;2023-08-20T12:48:51;4.82;;;2.67;;
12112;SDS011;6120;52.250;8.478;2023-08-20T12:51:17;4.95;;;2.55;;
12112;SDS011;6120;52.250;8.478;2023-08-20T12:53:44;4.15;;;2.83;;
12112;SDS011;6120;52.250;8.478;2023-08-20T12:56:10;4.28;;;2.80;;
12112;SDS011;6120;52.250;8.478;2023-08-20T12:58:38;4.45;;;2.63;;
12112;SDS011;6120;52.250;8.478;2023-08-20T13:01:04;4.93;;;2.65;;
12112;SDS011;6120;52.250;8.478;2023-08-20T13:03:31;3.80;;;2.35;;
12112;SDS011;6120;52.250;8.478;2023-08-20T13:05:58;5.27;;;2.90;;
12112;SDS011;6120;52.250;8.478;2023-08-20T13:08:26;4.05;;;2.53;;
12112;SDS011;6120;52.250;8.478;2023-08-20T13:10:53;5.88;;;3.00;;
12112;SDS011;6120;52.250;8.478;2023-08-20T13:13:22;4.55;;;2.55;;
12112;SDS011;6120;52.250;8.478;2023-08-20T13:15:50;3.50;;;2.20;;
12112;SDS011;6120;52.250;8.478;2023-08-20T13:18:18;4.30;;;2.60;;
12112;SDS011;6120;52.250;8.478;2023-08-20T13:20:45;4.63;;;2.80;;
12112;SDS011;6120;52.250;8.478;2023-08-20T13:23:12;7.15;;;2.60;;
12112;SDS011;6120;52.250;8.478;2023-08-20T13:25:39;4.03;;;2.40;;
12112;SDS011;6120;52.250;8.478;2023-08-20T13:28:05;4.18;;;2.40;;
12112;SDS011;6120;52.250;8.478;2023-08-20T13:30:32;3.78;;;2.60;;
12112;SDS011;6120;52.250;8.478;2023-08-20T13:33:00;5.75;;;2.60;;
12112;SDS011;6120;52.250;8.478;2023-08-20T13:35:27;3.10;;;2.20;;
12112;SDS011;6120;52.250;8.478;2023-08-20T13:37:54;5.00;;;2.63;;
12112;SDS011;6120;52.250;8.478;2023-08-20T13:40:20;4.70;;;3.05;;
12112;SDS011;6120;52.250;8.478;2023-08-20T13:42:47;4.32;;;2.88;;
12112;SDS011;6120;52.250;8.478;2023-08-20T13:45:14;5.53;;;2.60;;
12112;SDS011;6120;52.250;8.478;2023-08-20T13:47:41;6.40;;;3.10;;
12112;SDS011;6120;52.250;8.478;2023-08-20T13:50:08;5.37;;;2.50;;
12112;SDS011;6120;52.250;8.478;2023-08-20T13:52:35;5.20;;;2.67;;
12112;SDS011;6120;52.250;8.478;2023-08-20T13:55:02;5.78;;;2.97;;
12112;SDS011;6120;52.250;8.478;2023-08-20T13:57:29;4.20;;;2.42;;
12112;SDS011;6120;52.250;8.478;2023-08-20T13:59:56;5.60;;;2.42;;
12112;SDS011;6120;52.250;8.478;2023-08-20T14:02:22;4.30;;;3.00;;
12112;SDS011;6120;52.250;8.478;2023-08-20T14:04:49;7.35;;;2.85;;
12112;SDS011;6120;52.250;8.478;2023-08-20T14:07:17;6.47;;;2.70;;
12112;SDS011;6120;52.250;8.478;2023-08-20T14:09:44;4.28;;;2.70;;
12112;SDS011;6120;52.250;8.478;2023-08-20T14:12:10;4.80;;;2.97;;
12112;SDS011;6120;52.250;8.478;2023-08-20T14:14:37;7.15;;;3.47;;
12112;SDS011;6120;52.250;8.478;2023-08-20T14:17:04;4.72;;;2.30;;
12112;SDS011;6120;52.250;8.478;2023-08-20T14:19:30;3.85;;;2.58;;
12112;SDS011;6120;52.250;8.478;2023-08-20T14:21:57;4.57;;;2.78;;
12112;SDS011;6120;52.250;8.478;2023-08-20T14:24:23;6.45;;;2.95;;
12112;SDS011;6120;52.250;8.478;2023-08-20T14:26:50;4.53;;;2.60;;
12112;SDS011;6120;52.250;8.478;2023-08-20T14:29:17;6.55;;;2.50;;
12112;SDS011;6120;52.250;8.478;2023-08-20T14:31:43;5.07;;;2.40;;
12112;SDS011;6120;52.250;8.478;2023-08-20T14:34:10;4.15;;;2.58;;
12112;SDS011;6120;52.250;8.478;2023-08-20T14:36:36;5.03;;;2.40;;
12112;SDS011;6120;52.250;8.478;2023-08-20T14:39:05;4.53;;;2.70;;
12112;SDS011;6120;52.250;8.478;2023-08-20T14:41:32;5.35;;;2.97;;
12112;SDS011;6120;52.250;8.478;2023-08-20T14:43:58;3.58;;;2.30;;
12112;SDS011;6120;52.250;8.478;2023-08-20T14:46:25;4.85;;;2.60;;
12112;SDS011;6120;52.250;8.478;2023-08-20T14:48:52;5.15;;;2.83;;
12112;SDS011;6120;52.250;8.478;2023-08-20T14:51:21;5.93;;;3.10;;
12112;SDS011;6120;52.250;8.478;2023-08-20T14:53:48;5.20;;;3.07;;
12112;SDS011;6120;52.250;8.478;2023-08-20T14:56:15;5.00;;;2.60;;
12112;SDS011;6120;52.250;8.478;2023-08-20T14:58:42;6.07;;;3.55;;
12112;SDS011;6120;52.250;8.478;2023-08-20T15:01:08;4.45;;;2.75;;
12112;SDS011;6120;52.250;8.478;2023-08-20T15:03:35;6.18;;;3.13;;
12112;SDS011;6120;52.250;8.478;2023-08-20T15:06:02;6.75;;;3.00;;
12112;SDS011;6120;52.250;8.478;2023-08-20T15:08:29;6.55;;;3.13;;
12112;SDS011;6120;52.250;8.478;2023-08-20T15:10:59;4.05;;;2.63;;
12112;SDS011;6120;52.250;8.478;2023-08-20T15:13:30;4.43;;;2.90;;
12112;SDS011;6120;52.250;8.478;2023-08-20T15:15:57;4.75;;;3.17;;
12112;SDS011;6120;52.250;8.478;2023-08-20T15:18:24;4.07;;;3.00;;
12112;SDS011;6120;52.250;8.478;2023-08-20T15:20:57;4.10;;;2.88;;
12112;SDS011;6120;52.250;8.478;2023-08-20T15:23:24;6.07;;;3.65;;
12112;SDS011;6120;52.250;8.478;2023-08-20T15:28:22;6.28;;;3.55;;
12112;SDS011;6120;52.250;8.478;2023-08-20T15:30:52;4.80;;;3.17;;
12112;SDS011;6120;52.250;8.478;2023-08-20T15:33:19;4.88;;;3.47;;
12112;SDS011;6120;52.250;8.478;2023-08-20T15:35:46;5.55;;;3.47;;
12112;SDS011;6120;52.250;8.478;2023-08-20T15:38:13;7.15;;;3.72;;
12112;SDS011;6120;52.250;8.478;2023-08-20T15:40:40;5.13;;;3.47;;